This is the latest recevied weather packets stored in our database for station/object KK4JIV-13. If no packets are shown the sender has not sent any weather packets the latest 1 day(s).
| Time | Temp. | Humidity | Pressure | Rain* | Wind** | Luminosity | Snow |
|---|---|---|---|---|---|---|---|
| 1778074236 | 25° C | 76% | 1016.5 hPa | 0 mm | - | 358 W/m² | - |
| 1778072418 | 22.78° C | 79% | 1016.3 hPa | 0 mm | - | 187 W/m² | - |
| 1778070907 | 21.67° C | 81% | 1016 hPa | 0 mm | - | 158 W/m² | - |
| 1778069696 | 20° C | 84% | 1016.1 hPa | 0 mm | - | 148 W/m² | - |
| 1778067277 | 15.56° C | 97% | 1015.5 hPa | 0 mm | - | 41 W/m² | - |
| 1778066973 | 15° C | 97% | 1015.5 hPa | 0 mm | - | 36 W/m² | - |
| 1778066671 | 15° C | 97% | 1015.5 hPa | 0 mm | - | 28 W/m² | - |
| 1778066066 | 15° C | 97% | 1015.4 hPa | 0 mm | - | 20 W/m² | - |
| 1778064550 | 15° C | 97% | 1015.2 hPa | 0 mm | - | 3 W/m² | - |
| 1778063643 | 15° C | 96% | 1015.2 hPa | 0 mm | - | 0 W/m² | - |
| 1778062735 | 15° C | 96% | 1014.8 hPa | 0 mm | - | 0 W/m² | - |
| 1778062431 | 15° C | 96% | 1014.7 hPa | 0 mm | - | 0 W/m² | - |
| 1778060919 | 15° C | 95% | 1015 hPa | 0 mm | - | 0 W/m² | - |
| 1778060315 | 15.56° C | 95% | 1014.7 hPa | 0 mm | - | 0 W/m² | - |
| 1778059407 | 15.56° C | 94% | 1014.6 hPa | 0 mm | - | 0 W/m² | - |
| 1778059099 | 15.56° C | 94% | 1014.8 hPa | 0 mm | - | 0 W/m² | - |
| 1778058494 | 15.56° C | 94% | 1015 hPa | 0 mm | - | 0 W/m² | - |
| 1778058191 | 16.11° C | 93% | 1014.7 hPa | 0 mm | - | 0 W/m² | - |
| 1778057584 | 16.11° C | 92% | 1014.9 hPa | 0 mm | - | 0 W/m² | - |
| 1778056977 | 16.11° C | 92% | 1014.7 hPa | 0 mm | - | 0 W/m² | - |
| 1778056674 | 16.11° C | 92% | 1014.8 hPa | 0 mm | - | 0 W/m² | - |
| 1778056372 | 16.11° C | 92% | 1014.9 hPa | 0 mm | - | 0 W/m² | - |
| 1778056069 | 16.67° C | 91% | 1015.1 hPa | 0 mm | - | 0 W/m² | - |
| 1778055769 | 16.67° C | 91% | 1014.8 hPa | 0 mm | - | 0 W/m² | - |
| 1778055467 | 16.67° C | 90% | 1014.8 hPa | 0 mm | - | 0 W/m² | - |
* Rain latest hour (hover to see other rain measurements)
** Current wind speed in m/s (hover to see current wind gust speed)